sensor_id;sensor_type;location;lat;lon;timestamp;temperature;humidity
18880;DHT22;9572;52.378;13.404;2023-07-29T00:00:46;17.50;99.90
18880;DHT22;9572;52.378;13.404;2023-07-29T00:03:13;17.50;99.90
18880;DHT22;9572;52.378;13.404;2023-07-29T00:05:40;17.50;99.90
18880;DHT22;9572;52.378;13.404;2023-07-29T00:08:07;17.50;99.90
18880;DHT22;9572;52.378;13.404;2023-07-29T00:10:37;17.50;99.90
18880;DHT22;9572;52.378;13.404;2023-07-29T00:13:04;17.40;99.90
18880;DHT22;9572;52.378;13.404;2023-07-29T00:15:31;17.50;99.90
18880;DHT22;9572;52.378;13.404;2023-07-29T00:18:00;17.50;99.90
18880;DHT22;9572;52.378;13.404;2023-07-29T00:20:27;17.40;99.90
18880;DHT22;9572;52.378;13.404;2023-07-29T00:22:54;17.40;99.90
18880;DHT22;9572;52.378;13.404;2023-07-29T00:25:21;17.30;99.90
18880;DHT22;9572;52.378;13.404;2023-07-29T00:27:50;17.30;99.90
18880;DHT22;9572;52.378;13.404;2023-07-29T00:30:17;17.20;99.90
18880;DHT22;9572;52.378;13.404;2023-07-29T00:32:44;17.20;99.90
18880;DHT22;9572;52.378;13.404;2023-07-29T00:35:11;17.20;99.90
18880;DHT22;9572;52.378;13.404;2023-07-29T00:37:38;17.10;99.90
18880;DHT22;9572;52.378;13.404;2023-07-29T00:40:12;17.10;99.90
18880;DHT22;9572;52.378;13.404;2023-07-29T00:42:41;17.10;99.90
18880;DHT22;9572;52.378;13.404;2023-07-29T00:45:10;17.10;99.90
18880;DHT22;9572;52.378;13.404;2023-07-29T00:47:44;17.10;99.90
18880;DHT22;9572;52.378;13.404;2023-07-29T00:50:14;17.00;99.90
18880;DHT22;9572;52.378;13.404;2023-07-29T00:52:41;17.00;99.90
18880;DHT22;9572;52.378;13.404;2023-07-29T00:55:17;17.00;99.90
18880;DHT22;9572;52.378;13.404;2023-07-29T00:57:47;16.90;99.90
18880;DHT22;9572;52.378;13.404;2023-07-29T01:03:55;16.90;99.90
18880;DHT22;9572;52.378;13.404;2023-07-29T01:06:29;16.80;99.90
18880;DHT22;9572;52.378;13.404;2023-07-29T01:09:29;16.80;99.90
18880;DHT22;9572;52.378;13.404;2023-07-29T01:12:09;16.80;99.90
18880;DHT22;9572;52.378;13.404;2023-07-29T01:14:49;16.80;99.90
18880;DHT22;9572;52.378;13.404;2023-07-29T01:17:28;16.70;99.90
18880;DHT22;9572;52.378;13.404;2023-07-29T01:20:18;16.70;99.90
18880;DHT22;9572;52.378;13.404;2023-07-29T01:26:36;16.60;99.90
18880;DHT22;9572;52.378;13.404;2023-07-29T01:29:03;16.60;99.90
18880;DHT22;9572;52.378;13.404;2023-07-29T01:31:34;16.60;99.90
18880;DHT22;9572;52.378;13.404;2023-07-29T01:34:15;16.60;99.90
18880;DHT22;9572;52.378;13.404;2023-07-29T01:36:45;16.60;99.90
18880;DHT22;9572;52.378;13.404;2023-07-29T01:39:16;16.60;99.90
18880;DHT22;9572;52.378;13.404;2023-07-29T01:41:45;16.50;99.90
18880;DHT22;9572;52.378;13.404;2023-07-29T01:44:14;16.50;99.90
18880;DHT22;9572;52.378;13.404;2023-07-29T01:46:41;16.50;99.90
18880;DHT22;9572;52.378;13.404;2023-07-29T01:49:10;16.50;99.90
18880;DHT22;9572;52.378;13.404;2023-07-29T01:51:38;16.50;99.90
18880;DHT22;9572;52.378;13.404;2023-07-29T01:54:05;16.50;99.90
18880;DHT22;9572;52.378;13.404;2023-07-29T01:56:32;16.50;99.90
18880;DHT22;9572;52.378;13.404;2023-07-29T01:59:02;16.50;99.90
18880;DHT22;9572;52.378;13.404;2023-07-29T02:01:29;16.40;99.90
18880;DHT22;9572;52.378;13.404;2023-07-29T02:03:56;16.40;99.90
18880;DHT22;9572;52.378;13.404;2023-07-29T02:06:23;16.40;99.90
18880;DHT22;9572;52.378;13.404;2023-07-29T02:08:51;16.40;99.90
18880;DHT22;9572;52.378;13.404;2023-07-29T02:11:18;16.40;99.90
18880;DHT22;9572;52.378;13.404;2023-07-29T02:13:49;16.30;99.90
18880;DHT22;9572;52.378;13.404;2023-07-29T02:16:18;16.30;99.90
18880;DHT22;9572;52.378;13.404;2023-07-29T02:18:44;16.30;99.90
18880;DHT22;9572;52.378;13.404;2023-07-29T02:21:11;16.20;99.90
18880;DHT22;9572;52.378;13.404;2023-07-29T02:23:39;16.20;99.90
18880;DHT22;9572;52.378;13.404;2023-07-29T02:26:06;16.20;99.90
18880;DHT22;9572;52.378;13.404;2023-07-29T02:28:33;16.20;99.90
18880;DHT22;9572;52.378;13.404;2023-07-29T02:31:15;16.10;99.90
18880;DHT22;9572;52.378;13.404;2023-07-29T02:33:44;16.10;99.90
18880;DHT22;9572;52.378;13.404;2023-07-29T02:36:12;16.10;99.90
18880;DHT22;9572;52.378;13.404;2023-07-29T02:38:40;16.10;99.90
18880;DHT22;9572;52.378;13.404;2023-07-29T02:41:07;16.00;99.90
18880;DHT22;9572;52.378;13.404;2023-07-29T02:43:37;16.00;99.90
18880;DHT22;9572;52.378;13.404;2023-07-29T02:46:06;16.00;99.90
18880;DHT22;9572;52.378;13.404;2023-07-29T02:48:33;16.00;99.90
18880;DHT22;9572;52.378;13.404;2023-07-29T02:51:01;16.00;99.90
18880;DHT22;9572;52.378;13.404;2023-07-29T02:53:28;15.90;99.90
18880;DHT22;9572;52.378;13.404;2023-07-29T02:55:55;16.00;99.90
18880;DHT22;9572;52.378;13.404;2023-07-29T02:58:22;16.00;99.90
18880;DHT22;9572;52.378;13.404;2023-07-29T03:00:49;16.00;99.90
18880;DHT22;9572;52.378;13.404;2023-07-29T03:03:16;15.90;99.90
18880;DHT22;9572;52.378;13.404;2023-07-29T03:05:44;15.90;99.90
18880;DHT22;9572;52.378;13.404;2023-07-29T03:08:13;15.90;99.90
18880;DHT22;9572;52.378;13.404;2023-07-29T03:10:40;15.90;99.90
18880;DHT22;9572;52.378;13.404;2023-07-29T03:13:07;15.90;99.90
18880;DHT22;9572;52.378;13.404;2023-07-29T03:15:35;16.00;99.90
18880;DHT22;9572;52.378;13.404;2023-07-29T03:18:01;16.10;99.90
18880;DHT22;9572;52.378;13.404;2023-07-29T03:20:28;16.10;99.90
18880;DHT22;9572;52.378;13.404;2023-07-29T03:22:55;16.10;99.90
18880;DHT22;9572;52.378;13.404;2023-07-29T03:25:23;16.20;99.90
18880;DHT22;9572;52.378;13.404;2023-07-29T03:27:50;16.20;99.90
18880;DHT22;9572;52.378;13.404;2023-07-29T03:30:19;16.20;99.90
18880;DHT22;9572;52.378;13.404;2023-07-29T03:32:46;16.10;99.90
18880;DHT22;9572;52.378;13.404;2023-07-29T03:35:13;16.20;99.90
18880;DHT22;9572;52.378;13.404;2023-07-29T03:37:40;16.20;99.90
18880;DHT22;9572;52.378;13.404;2023-07-29T03:40:08;16.20;99.90
18880;DHT22;9572;52.378;13.404;2023-07-29T03:42:37;16.30;99.90
18880;DHT22;9572;52.378;13.404;2023-07-29T03:45:04;16.30;99.90
18880;DHT22;9572;52.378;13.404;2023-07-29T03:47:31;16.30;99.90
18880;DHT22;9572;52.378;13.404;2023-07-29T03:49:58;16.30;99.90
18880;DHT22;9572;52.378;13.404;2023-07-29T03:52:26;16.40;99.90
18880;DHT22;9572;52.378;13.404;2023-07-29T03:54:52;16.50;99.90
18880;DHT22;9572;52.378;13.404;2023-07-29T03:57:19;16.50;99.90
18880;DHT22;9572;52.378;13.404;2023-07-29T03:59:47;16.50;99.90
18880;DHT22;9572;52.378;13.404;2023-07-29T04:02:14;16.50;99.90
18880;DHT22;9572;52.378;13.404;2023-07-29T04:04:41;16.60;99.90
18880;DHT22;9572;52.378;13.404;2023-07-29T04:07:09;16.60;99.90
18880;DHT22;9572;52.378;13.404;2023-07-29T04:09:36;16.70;99.90
18880;DHT22;9572;52.378;13.404;2023-07-29T04:12:04;16.70;99.90
18880;DHT22;9572;52.378;13.404;2023-07-29T04:14:31;16.80;99.90
18880;DHT22;9572;52.378;13.404;2023-07-29T04:16:59;16.80;99.90
18880;DHT22;9572;52.378;13.404;2023-07-29T04:19:26;16.80;99.90
18880;DHT22;9572;52.378;13.404;2023-07-29T04:21:53;16.80;99.90
18880;DHT22;9572;52.378;13.404;2023-07-29T04:24:20;16.80;99.90
18880;DHT22;9572;52.378;13.404;2023-07-29T04:26:48;16.80;99.90
18880;DHT22;9572;52.378;13.404;2023-07-29T04:29:15;16.90;99.90
18880;DHT22;9572;52.378;13.404;2023-07-29T04:31:42;16.80;99.90
18880;DHT22;9572;52.378;13.404;2023-07-29T04:34:10;16.80;99.90
18880;DHT22;9572;52.378;13.404;2023-07-29T04:36:37;16.80;99.90
18880;DHT22;9572;52.378;13.404;2023-07-29T04:39:04;16.80;99.90
18880;DHT22;9572;52.378;13.404;2023-07-29T04:41:31;16.90;99.90
18880;DHT22;9572;52.378;13.404;2023-07-29T04:43:58;16.90;99.90
18880;DHT22;9572;52.378;13.404;2023-07-29T04:46:25;16.90;99.90
18880;DHT22;9572;52.378;13.404;2023-07-29T04:48:52;17.00;99.90
18880;DHT22;9572;52.378;13.404;2023-07-29T04:51:20;17.10;99.90
18880;DHT22;9572;52.378;13.404;2023-07-29T04:53:47;17.20;99.90
18880;DHT22;9572;52.378;13.404;2023-07-29T04:56:14;17.30;99.90
18880;DHT22;9572;52.378;13.404;2023-07-29T04:58:41;17.30;99.90
18880;DHT22;9572;52.378;13.404;2023-07-29T05:01:08;17.40;99.90
18880;DHT22;9572;52.378;13.404;2023-07-29T05:03:35;17.40;99.90
18880;DHT22;9572;52.378;13.404;2023-07-29T05:06:02;17.40;99.90
18880;DHT22;9572;52.378;13.404;2023-07-29T05:08:30;17.50;99.90
18880;DHT22;9572;52.378;13.404;2023-07-29T05:10:57;17.50;99.90
18880;DHT22;9572;52.378;13.404;2023-07-29T05:13:24;17.50;99.90
18880;DHT22;9572;52.378;13.404;2023-07-29T05:15:51;17.60;99.90
18880;DHT22;9572;52.378;13.404;2023-07-29T05:18:18;17.70;99.90
18880;DHT22;9572;52.378;13.404;2023-07-29T05:20:46;17.90;99.90
18880;DHT22;9572;52.378;13.404;2023-07-29T05:23:13;18.00;99.90
18880;DHT22;9572;52.378;13.404;2023-07-29T05:25:41;18.20;99.90
18880;DHT22;9572;52.378;13.404;2023-07-29T05:28:08;18.40;99.90
18880;DHT22;9572;52.378;13.404;2023-07-29T05:30:35;18.40;99.90
18880;DHT22;9572;52.378;13.404;2023-07-29T05:33:03;18.50;99.90
18880;DHT22;9572;52.378;13.404;2023-07-29T05:35:30;18.50;99.90
18880;DHT22;9572;52.378;13.404;2023-07-29T05:37:57;18.50;99.90
18880;DHT22;9572;52.378;13.404;2023-07-29T05:40:24;18.50;99.90
18880;DHT22;9572;52.378;13.404;2023-07-29T05:42:53;18.60;99.90
18880;DHT22;9572;52.378;13.404;2023-07-29T05:45:20;18.80;99.90
18880;DHT22;9572;52.378;13.404;2023-07-29T05:47:47;19.10;99.90
18880;DHT22;9572;52.378;13.404;2023-07-29T05:50:14;19.40;99.90
18880;DHT22;9572;52.378;13.404;2023-07-29T05:52:41;19.60;99.90
18880;DHT22;9572;52.378;13.404;2023-07-29T05:55:09;19.70;99.90
18880;DHT22;9572;52.378;13.404;2023-07-29T05:57:36;19.80;99.90
18880;DHT22;9572;52.378;13.404;2023-07-29T06:00:06;19.90;99.90
18880;DHT22;9572;52.378;13.404;2023-07-29T06:02:33;20.00;99.90
18880;DHT22;9572;52.378;13.404;2023-07-29T06:05:00;20.10;99.90
18880;DHT22;9572;52.378;13.404;2023-07-29T06:07:28;20.20;99.90
18880;DHT22;9572;52.378;13.404;2023-07-29T06:09:56;20.30;99.90
18880;DHT22;9572;52.378;13.404;2023-07-29T06:12:23;20.40;99.90
18880;DHT22;9572;52.378;13.404;2023-07-29T06:14:51;20.60;99.90
18880;DHT22;9572;52.378;13.404;2023-07-29T06:17:20;20.60;99.90
18880;DHT22;9572;52.378;13.404;2023-07-29T06:19:47;20.70;99.90
18880;DHT22;9572;52.378;13.404;2023-07-29T06:22:14;20.70;99.90
18880;DHT22;9572;52.378;13.404;2023-07-29T06:24:41;20.70;99.90
18880;DHT22;9572;52.378;13.404;2023-07-29T06:27:08;21.00;99.90
18880;DHT22;9572;52.378;13.404;2023-07-29T06:29:35;21.30;99.90
18880;DHT22;9572;52.378;13.404;2023-07-29T06:32:02;21.70;99.90
18880;DHT22;9572;52.378;13.404;2023-07-29T06:34:31;21.90;99.90
18880;DHT22;9572;52.378;13.404;2023-07-29T06:36:58;22.20;99.90
18880;DHT22;9572;52.378;13.404;2023-07-29T06:39:25;22.30;99.90
18880;DHT22;9572;52.378;13.404;2023-07-29T06:41:52;22.30;99.90
18880;DHT22;9572;52.378;13.404;2023-07-29T06:44:19;22.40;99.90
18880;DHT22;9572;52.378;13.404;2023-07-29T06:46:46;22.60;99.90
18880;DHT22;9572;52.378;13.404;2023-07-29T06:49:13;22.70;99.90
18880;DHT22;9572;52.378;13.404;2023-07-29T06:51:41;22.90;99.90
18880;DHT22;9572;52.378;13.404;2023-07-29T06:54:09;23.10;99.90
18880;DHT22;9572;52.378;13.404;2023-07-29T06:56:36;23.20;99.90
18880;DHT22;9572;52.378;13.404;2023-07-29T06:59:03;23.20;99.90
18880;DHT22;9572;52.378;13.404;2023-07-29T07:01:30;23.10;99.90
18880;DHT22;9572;52.378;13.404;2023-07-29T07:03:56;23.10;99.90
18880;DHT22;9572;52.378;13.404;2023-07-29T07:06:24;23.10;99.90
18880;DHT22;9572;52.378;13.404;2023-07-29T07:08:53;23.20;99.90
18880;DHT22;9572;52.378;13.404;2023-07-29T07:11:20;23.30;99.90
18880;DHT22;9572;52.378;13.404;2023-07-29T07:13:47;23.30;99.90
18880;DHT22;9572;52.378;13.404;2023-07-29T07:16:14;23.40;99.90
18880;DHT22;9572;52.378;13.404;2023-07-29T07:18:41;23.50;99.90
18880;DHT22;9572;52.378;13.404;2023-07-29T07:21:08;23.60;99.90
18880;DHT22;9572;52.378;13.404;2023-07-29T07:23:35;23.90;99.90
18880;DHT22;9572;52.378;13.404;2023-07-29T07:26:03;24.20;99.90
18880;DHT22;9572;52.378;13.404;2023-07-29T07:28:30;24.20;99.90
18880;DHT22;9572;52.378;13.404;2023-07-29T07:30:57;24.10;99.90
18880;DHT22;9572;52.378;13.404;2023-07-29T07:33:24;23.90;99.90
18880;DHT22;9572;52.378;13.404;2023-07-29T07:35:51;23.70;99.90
18880;DHT22;9572;52.378;13.404;2023-07-29T07:38:19;23.60;99.90
18880;DHT22;9572;52.378;13.404;2023-07-29T07:40:52;23.60;99.90
18880;DHT22;9572;52.378;13.404;2023-07-29T07:43:22;23.90;99.90
18880;DHT22;9572;52.378;13.404;2023-07-29T07:45:49;23.90;99.90
18880;DHT22;9572;52.378;13.404;2023-07-29T07:48:16;24.00;99.90
18880;DHT22;9572;52.378;13.404;2023-07-29T07:50:43;23.80;99.90
18880;DHT22;9572;52.378;13.404;2023-07-29T07:53:10;23.70;99.90
18880;DHT22;9572;52.378;13.404;2023-07-29T07:55:38;23.80;99.90
18880;DHT22;9572;52.378;13.404;2023-07-29T07:58:05;24.00;99.90
18880;DHT22;9572;52.378;13.404;2023-07-29T08:00:33;24.20;99.90
18880;DHT22;9572;52.378;13.404;2023-07-29T08:03:00;24.30;99.90
18880;DHT22;9572;52.378;13.404;2023-07-29T08:05:27;24.20;99.90
18880;DHT22;9572;52.378;13.404;2023-07-29T08:07:54;24.10;99.90
18880;DHT22;9572;52.378;13.404;2023-07-29T08:10:21;24.00;99.90
18880;DHT22;9572;52.378;13.404;2023-07-29T08:12:48;23.90;99.90
18880;DHT22;9572;52.378;13.404;2023-07-29T08:15:15;23.70;99.90
18880;DHT22;9572;52.378;13.404;2023-07-29T08:17:45;23.70;99.90
18880;DHT22;9572;52.378;13.404;2023-07-29T08:20:12;23.70;99.90
18880;DHT22;9572;52.378;13.404;2023-07-29T08:22:39;23.60;99.90
18880;DHT22;9572;52.378;13.404;2023-07-29T08:25:07;23.60;99.90
18880;DHT22;9572;52.378;13.404;2023-07-29T08:27:33;23.80;99.90
18880;DHT22;9572;52.378;13.404;2023-07-29T08:30:01;23.80;99.90
18880;DHT22;9572;52.378;13.404;2023-07-29T08:32:28;23.80;99.90
18880;DHT22;9572;52.378;13.404;2023-07-29T08:34:56;23.80;99.90
18880;DHT22;9572;52.378;13.404;2023-07-29T08:37:23;23.70;99.90
18880;DHT22;9572;52.378;13.404;2023-07-29T08:39:50;23.60;99.90
18880;DHT22;9572;52.378;13.404;2023-07-29T08:42:19;23.60;99.90
18880;DHT22;9572;52.378;13.404;2023-07-29T08:44:50;23.70;99.90
18880;DHT22;9572;52.378;13.404;2023-07-29T08:47:18;23.80;99.90
18880;DHT22;9572;52.378;13.404;2023-07-29T08:49:46;23.90;99.90
18880;DHT22;9572;52.378;13.404;2023-07-29T08:52:16;23.90;99.90
18880;DHT22;9572;52.378;13.404;2023-07-29T08:54:43;23.90;99.90
18880;DHT22;9572;52.378;13.404;2023-07-29T08:57:10;23.90;99.90
18880;DHT22;9572;52.378;13.404;2023-07-29T08:59:37;24.00;99.90
18880;DHT22;9572;52.378;13.404;2023-07-29T09:02:04;24.30;99.90
18880;DHT22;9572;52.378;13.404;2023-07-29T09:04:32;24.40;99.90
18880;DHT22;9572;52.378;13.404;2023-07-29T09:06:59;24.40;99.90
18880;DHT22;9572;52.378;13.404;2023-07-29T09:09:28;24.20;99.90
18880;DHT22;9572;52.378;13.404;2023-07-29T09:11:56;24.30;99.90
18880;DHT22;9572;52.378;13.404;2023-07-29T09:14:24;24.40;99.90
18880;DHT22;9572;52.378;13.404;2023-07-29T09:16:51;24.70;99.90
18880;DHT22;9572;52.378;13.404;2023-07-29T09:19:18;24.80;99.90
18880;DHT22;9572;52.378;13.404;2023-07-29T09:21:46;24.80;99.90
18880;DHT22;9572;52.378;13.404;2023-07-29T09:24:15;25.00;99.90
18880;DHT22;9572;52.378;13.404;2023-07-29T09:26:48;25.20;99.90
18880;DHT22;9572;52.378;13.404;2023-07-29T09:29:16;25.40;99.90
18880;DHT22;9572;52.378;13.404;2023-07-29T09:31:48;25.50;99.90
18880;DHT22;9572;52.378;13.404;2023-07-29T09:34:16;25.50;99.90
18880;DHT22;9572;52.378;13.404;2023-07-29T09:36:43;25.40;99.90
18880;DHT22;9572;52.378;13.404;2023-07-29T09:39:11;25.30;99.90
18880;DHT22;9572;52.378;13.404;2023-07-29T09:41:38;25.30;99.90
18880;DHT22;9572;52.378;13.404;2023-07-29T09:44:07;25.30;99.90
18880;DHT22;9572;52.378;13.404;2023-07-29T09:46:35;25.50;99.90
18880;DHT22;9572;52.378;13.404;2023-07-29T09:49:03;25.60;99.90
18880;DHT22;9572;52.378;13.404;2023-07-29T09:51:31;25.60;99.90
18880;DHT22;9572;52.378;13.404;2023-07-29T09:54:02;25.60;99.90
18880;DHT22;9572;52.378;13.404;2023-07-29T09:56:29;25.70;99.90
18880;DHT22;9572;52.378;13.404;2023-07-29T09:58:57;25.80;99.90
18880;DHT22;9572;52.378;13.404;2023-07-29T10:01:26;26.00;99.90
18880;DHT22;9572;52.378;13.404;2023-07-29T10:03:53;26.10;99.90
18880;DHT22;9572;52.378;13.404;2023-07-29T10:06:22;26.00;99.90
18880;DHT22;9572;52.378;13.404;2023-07-29T10:08:49;25.90;99.90
18880;DHT22;9572;52.378;13.404;2023-07-29T10:11:17;25.80;99.90
18880;DHT22;9572;52.378;13.404;2023-07-29T10:13:46;25.70;99.90
18880;DHT22;9572;52.378;13.404;2023-07-29T10:16:13;25.60;99.90
18880;DHT22;9572;52.378;13.404;2023-07-29T10:18:42;25.60;99.90
18880;DHT22;9572;52.378;13.404;2023-07-29T10:21:11;25.70;99.90
18880;DHT22;9572;52.378;13.404;2023-07-29T10:23:43;25.80;99.90
18880;DHT22;9572;52.378;13.404;2023-07-29T10:26:14;26.00;99.90
18880;DHT22;9572;52.378;13.404;2023-07-29T10:28:47;26.10;99.90
18880;DHT22;9572;52.378;13.404;2023-07-29T10:31:15;26.30;99.90
18880;DHT22;9572;52.378;13.404;2023-07-29T10:33:44;26.30;99.90
18880;DHT22;9572;52.378;13.404;2023-07-29T10:36:12;26.20;99.90
18880;DHT22;9572;52.378;13.404;2023-07-29T10:38:41;26.30;99.90
18880;DHT22;9572;52.378;13.404;2023-07-29T10:41:08;26.20;99.90
18880;DHT22;9572;52.378;13.404;2023-07-29T10:43:36;26.20;99.90
18880;DHT22;9572;52.378;13.404;2023-07-29T10:46:17;26.30;99.90
18880;DHT22;9572;52.378;13.404;2023-07-29T10:48:52;26.40;99.90
18880;DHT22;9572;52.378;13.404;2023-07-29T10:51:24;26.40;99.90
18880;DHT22;9572;52.378;13.404;2023-07-29T10:53:52;26.40;99.90
18880;DHT22;9572;52.378;13.404;2023-07-29T10:56:28;26.40;99.90
18880;DHT22;9572;52.378;13.404;2023-07-29T10:59:02;26.50;99.90
18880;DHT22;9572;52.378;13.404;2023-07-29T11:01:30;26.40;99.90
18880;DHT22;9572;52.378;13.404;2023-07-29T11:04:27;26.50;99.90
18880;DHT22;9572;52.378;13.404;2023-07-29T11:07:20;26.50;99.90
18880;DHT22;9572;52.378;13.404;2023-07-29T11:09:57;26.20;99.90
18880;DHT22;9572;52.378;13.404;2023-07-29T11:12:42;26.00;99.90
18880;DHT22;9572;52.378;13.404;2023-07-29T11:15:28;25.70;99.90
18880;DHT22;9572;52.378;13.404;2023-07-29T11:17:57;25.20;99.90
18880;DHT22;9572;52.378;13.404;2023-07-29T11:20:26;24.60;99.90
18880;DHT22;9572;52.378;13.404;2023-07-29T11:22:54;23.90;99.90
18880;DHT22;9572;52.378;13.404;2023-07-29T11:25:23;23.30;99.90
18880;DHT22;9572;52.378;13.404;2023-07-29T11:27:52;23.10;99.90
18880;DHT22;9572;52.378;13.404;2023-07-29T11:30:19;22.80;99.90
18880;DHT22;9572;52.378;13.404;2023-07-29T11:32:46;22.60;99.90
18880;DHT22;9572;52.378;13.404;2023-07-29T11:35:15;22.50;99.90
18880;DHT22;9572;52.378;13.404;2023-07-29T11:37:46;22.50;99.90
18880;DHT22;9572;52.378;13.404;2023-07-29T11:40:14;22.50;99.90
18880;DHT22;9572;52.378;13.404;2023-07-29T11:42:41;22.60;99.90
18880;DHT22;9572;52.378;13.404;2023-07-29T11:45:09;22.70;99.90
18880;DHT22;9572;52.378;13.404;2023-07-29T11:47:36;22.90;99.90
18880;DHT22;9572;52.378;13.404;2023-07-29T11:50:04;23.00;99.90
18880;DHT22;9572;52.378;13.404;2023-07-29T11:52:32;23.00;99.90
18880;DHT22;9572;52.378;13.404;2023-07-29T11:55:02;23.10;99.90
18880;DHT22;9572;52.378;13.404;2023-07-29T11:57:30;22.90;99.90
18880;DHT22;9572;52.378;13.404;2023-07-29T11:59:57;22.90;99.90
18880;DHT22;9572;52.378;13.404;2023-07-29T12:02:24;22.80;99.90
18880;DHT22;9572;52.378;13.404;2023-07-29T12:04:52;22.70;99.90
18880;DHT22;9572;52.378;13.404;2023-07-29T12:07:20;22.70;99.90
18880;DHT22;9572;52.378;13.404;2023-07-29T12:09:47;22.70;99.90
18880;DHT22;9572;52.378;13.404;2023-07-29T12:12:15;22.70;99.90
18880;DHT22;9572;52.378;13.404;2023-07-29T12:14:45;22.70;99.90
18880;DHT22;9572;52.378;13.404;2023-07-29T12:17:13;22.60;99.90
18880;DHT22;9572;52.378;13.404;2023-07-29T12:19:40;22.60;99.90
18880;DHT22;9572;52.378;13.404;2023-07-29T12:22:09;22.50;99.90
18880;DHT22;9572;52.378;13.404;2023-07-29T12:24:37;22.50;99.90
18880;DHT22;9572;52.378;13.404;2023-07-29T12:27:05;22.30;99.90
18880;DHT22;9572;52.378;13.404;2023-07-29T12:29:39;22.20;99.90
18880;DHT22;9572;52.378;13.404;2023-07-29T12:32:07;22.10;99.90
18880;DHT22;9572;52.378;13.404;2023-07-29T12:34:35;22.10;99.90
18880;DHT22;9572;52.378;13.404;2023-07-29T12:37:04;22.10;99.90
18880;DHT22;9572;52.378;13.404;2023-07-29T12:39:33;22.20;99.90
18880;DHT22;9572;52.378;13.404;2023-07-29T12:42:01;22.40;99.90
18880;DHT22;9572;52.378;13.404;2023-07-29T12:44:31;22.40;99.90
18880;DHT22;9572;52.378;13.404;2023-07-29T12:47:00;22.40;99.90
18880;DHT22;9572;52.378;13.404;2023-07-29T12:49:28;22.40;99.90
18880;DHT22;9572;52.378;13.404;2023-07-29T12:51:55;22.50;99.90
18880;DHT22;9572;52.378;13.404;2023-07-29T12:54:22;22.50;99.90
18880;DHT22;9572;52.378;13.404;2023-07-29T12:56:49;22.40;99.90
18880;DHT22;9572;52.378;13.404;2023-07-29T12:59:16;22.40;99.90
18880;DHT22;9572;52.378;13.404;2023-07-29T13:01:43;22.40;99.90
18880;DHT22;9572;52.378;13.404;2023-07-29T13:04:11;22.50;99.90
18880;DHT22;9572;52.378;13.404;2023-07-29T13:06:39;22.60;99.90
18880;DHT22;9572;52.378;13.404;2023-07-29T13:09:05;22.60;99.90
18880;DHT22;9572;52.378;13.404;2023-07-29T13:11:33;22.60;99.90
18880;DHT22;9572;52.378;13.404;2023-07-29T13:14:00;22.70;99.90
18880;DHT22;9572;52.378;13.404;2023-07-29T13:16:28;22.70;99.90
18880;DHT22;9572;52.378;13.404;2023-07-29T13:18:55;22.60;99.90
18880;DHT22;9572;52.378;13.404;2023-07-29T13:21:24;22.50;99.90
18880;DHT22;9572;52.378;13.404;2023-07-29T13:23:51;22.40;99.90
18880;DHT22;9572;52.378;13.404;2023-07-29T13:26:18;22.40;99.90
18880;DHT22;9572;52.378;13.404;2023-07-29T13:28:45;22.40;99.90
18880;DHT22;9572;52.378;13.404;2023-07-29T13:31:12;22.50;99.90
18880;DHT22;9572;52.378;13.404;2023-07-29T13:33:39;22.60;99.90
18880;DHT22;9572;52.378;13.404;2023-07-29T13:36:06;22.90;99.90
18880;DHT22;9572;52.378;13.404;2023-07-29T13:38:36;23.20;99.90
18880;DHT22;9572;52.378;13.404;2023-07-29T13:41:03;23.40;99.90
18880;DHT22;9572;52.378;13.404;2023-07-29T13:43:31;23.60;99.90
18880;DHT22;9572;52.378;13.404;2023-07-29T13:45:58;23.80;99.90
18880;DHT22;9572;52.378;13.404;2023-07-29T13:48:25;23.90;99.90
18880;DHT22;9572;52.378;13.404;2023-07-29T13:50:52;24.10;99.90
18880;DHT22;9572;52.378;13.404;2023-07-29T13:53:19;24.30;99.90
18880;DHT22;9572;52.378;13.404;2023-07-29T13:55:47;24.30;99.90
18880;DHT22;9572;52.378;13.404;2023-07-29T14:00:46;24.40;99.90
18880;DHT22;9572;52.378;13.404;2023-07-29T14:03:13;24.40;99.90
18880;DHT22;9572;52.378;13.404;2023-07-29T14:05:40;24.40;99.90
18880;DHT22;9572;52.378;13.404;2023-07-29T14:08:07;24.40;99.90
18880;DHT22;9572;52.378;13.404;2023-07-29T14:10:34;24.30;99.90
18880;DHT22;9572;52.378;13.404;2023-07-29T14:13:02;24.20;99.90
18880;DHT22;9572;52.378;13.404;2023-07-29T14:15:29;24.20;99.90
18880;DHT22;9572;52.378;13.404;2023-07-29T14:17:58;24.40;99.90
18880;DHT22;9572;52.378;13.404;2023-07-29T14:20:25;24.40;99.90
18880;DHT22;9572;52.378;13.404;2023-07-29T14:22:52;24.40;99.90
18880;DHT22;9572;52.378;13.404;2023-07-29T14:25:18;24.30;99.90
18880;DHT22;9572;52.378;13.404;2023-07-29T14:27:45;24.30;99.90
18880;DHT22;9572;52.378;13.404;2023-07-29T14:30:14;24.30;99.90
18880;DHT22;9572;52.378;13.404;2023-07-29T14:32:41;24.40;99.90
18880;DHT22;9572;52.378;13.404;2023-07-29T14:35:08;24.50;99.90
18880;DHT22;9572;52.378;13.404;2023-07-29T14:37:35;24.50;99.90
18880;DHT22;9572;52.378;13.404;2023-07-29T14:40:04;24.60;99.90
18880;DHT22;9572;52.378;13.404;2023-07-29T14:42:31;24.60;99.90
18880;DHT22;9572;52.378;13.404;2023-07-29T14:44:58;24.60;99.90
18880;DHT22;9572;52.378;13.404;2023-07-29T14:47:26;24.70;99.90
18880;DHT22;9572;52.378;13.404;2023-07-29T14:49:53;24.70;99.90
18880;DHT22;9572;52.378;13.404;2023-07-29T14:52:20;24.60;99.90
18880;DHT22;9572;52.378;13.404;2023-07-29T14:54:47;24.40;99.90
18880;DHT22;9572;52.378;13.404;2023-07-29T14:57:13;24.20;99.90
18880;DHT22;9572;52.378;13.404;2023-07-29T14:59:40;24.10;99.90
18880;DHT22;9572;52.378;13.404;2023-07-29T15:02:07;24.00;99.90
18880;DHT22;9572;52.378;13.404;2023-07-29T15:04:36;23.90;99.90
18880;DHT22;9572;52.378;13.404;2023-07-29T15:07:03;23.80;99.90
18880;DHT22;9572;52.378;13.404;2023-07-29T15:09:30;23.80;99.90
18880;DHT22;9572;52.378;13.404;2023-07-29T15:11:57;23.70;99.90
18880;DHT22;9572;52.378;13.404;2023-07-29T15:14:24;23.60;99.90
18880;DHT22;9572;52.378;13.404;2023-07-29T15:16:53;23.60;99.90
18880;DHT22;9572;52.378;13.404;2023-07-29T15:19:20;23.60;99.90
18880;DHT22;9572;52.378;13.404;2023-07-29T15:21:48;23.50;99.90
18880;DHT22;9572;52.378;13.404;2023-07-29T15:24:15;23.50;99.90
18880;DHT22;9572;52.378;13.404;2023-07-29T15:26:42;23.50;99.90
18880;DHT22;9572;52.378;13.404;2023-07-29T15:29:09;23.50;99.90
18880;DHT22;9572;52.378;13.404;2023-07-29T15:31:36;23.50;99.90
18880;DHT22;9572;52.378;13.404;2023-07-29T15:34:06;23.50;99.90
18880;DHT22;9572;52.378;13.404;2023-07-29T15:36:33;23.40;99.90
18880;DHT22;9572;52.378;13.404;2023-07-29T15:39:08;23.30;99.90
18880;DHT22;9572;52.378;13.404;2023-07-29T15:41:37;23.20;99.90
18880;DHT22;9572;52.378;13.404;2023-07-29T15:44:05;23.20;99.90
18880;DHT22;9572;52.378;13.404;2023-07-29T15:46:33;23.20;99.90